KTCM

McChord Field (Joint Base Lewis-McChord) Airport

Tacoma, Washington, USA
METAR KTCM 162358Z AUTO 13005KT 10SM -RA BKN065 10/10 A2966 RMK AO2 RAB03E40RAB55 SLP048 P0003 60007 T00950095 10121 20086 53016 $
Observed Flight Rules
Dec-16 @ 23:58 UTC (25 minutes ago) Visual Flight Rules
Wind Visibility Clouds Conditions
130° at 5 knots 10 miles
  • Broken at 6,500' AGL
  • Light Rain
Temperatures Readings Precipitation
Current 10°C / 50°F
Dewpoint 10°C / 50°F
Humidity 100%
Altimeter 29.66" Hg
Pressure 1004.8 hPa
Elevation 98
Current Rain 0.03
METAR KTCM 162358Z AUTO 13005KT 10SM -RA BKN065 10/10 A2966 RMK AO2 RAB03E40RAB55 SLP048 P0003 60007 T00950095 10121 20086 53016 $
Observed Flight Rules
Dec-16 @ 23:58 UTC
(25 minutes ago)
VFR
Wind Visibility
130° at 5 knots 10 miles
Clouds
  • Broken at 6,500' AGL
Conditions
  • Light Rain
Temperature Dewpoint
10°C / 50°F 10°C / 50°F
Humidity Altimeter Pressure
100% 29.66" Hg 1004.8 hPa
Current Rain
0.03